sensor_id;sensor_type;location;lat;lon;timestamp;pressure;altitude;pressure_sealevel;temperature;humidity
35291;BME280;21411;50.024;19.220;2023-03-30T00:00:05;99047.92;;;3.32;77.04
35291;BME280;21411;50.024;19.220;2023-03-30T00:03:02;99047.20;;;3.38;77.30
35291;BME280;21411;50.024;19.220;2023-03-30T00:05:29;99044.61;;;3.41;77.33
35291;BME280;21411;50.024;19.220;2023-03-30T00:07:56;99039.04;;;3.44;77.69
35291;BME280;21411;50.024;19.220;2023-03-30T00:10:23;99036.48;;;3.47;77.68
35291;BME280;21411;50.024;19.220;2023-03-30T00:12:50;99033.58;;;3.50;78.20
35291;BME280;21411;50.024;19.220;2023-03-30T00:15:20;99029.27;;;3.52;79.10
35291;BME280;21411;50.024;19.220;2023-03-30T00:17:47;99027.48;;;3.53;78.46
35291;BME280;21411;50.024;19.220;2023-03-30T00:20:14;99029.92;;;3.54;77.86
35291;BME280;21411;50.024;19.220;2023-03-30T00:22:43;99029.02;;;3.55;78.02
35291;BME280;21411;50.024;19.220;2023-03-30T00:25:12;99024.97;;;3.55;78.62
35291;BME280;21411;50.024;19.220;2023-03-30T00:27:39;99021.49;;;3.54;78.62
35291;BME280;21411;50.024;19.220;2023-03-30T00:30:09;99019.11;;;3.51;78.62
35291;BME280;21411;50.024;19.220;2023-03-30T00:32:37;99016.57;;;3.49;78.67
35291;BME280;21411;50.024;19.220;2023-03-30T00:35:04;99014.73;;;3.46;78.72
35291;BME280;21411;50.024;19.220;2023-03-30T00:37:31;99010.81;;;3.43;79.10
35291;BME280;21411;50.024;19.220;2023-03-30T00:39:58;99004.61;;;3.40;79.50
35291;BME280;21411;50.024;19.220;2023-03-30T00:42:25;99000.92;;;3.35;79.49
35291;BME280;21411;50.024;19.220;2023-03-30T00:45:23;99001.27;;;3.30;79.80
35291;BME280;21411;50.024;19.220;2023-03-30T00:50:34;98997.56;;;3.17;80.17
35291;BME280;21411;50.024;19.220;2023-03-30T00:53:08;98997.66;;;3.10;80.97
35291;BME280;21411;50.024;19.220;2023-03-30T00:55:37;98997.19;;;3.03;81.40
35291;BME280;21411;50.024;19.220;2023-03-30T00:58:07;98997.73;;;2.98;81.84
35291;BME280;21411;50.024;19.220;2023-03-30T01:00:36;98992.10;;;2.93;81.89
35291;BME280;21411;50.024;19.220;2023-03-30T01:03:09;98991.23;;;2.88;81.88
35291;BME280;21411;50.024;19.220;2023-03-30T01:05:38;98992.47;;;2.83;81.87
35291;BME280;21411;50.024;19.220;2023-03-30T01:08:08;98994.73;;;2.79;82.26
35291;BME280;21411;50.024;19.220;2023-03-30T01:10:35;98996.50;;;2.74;83.41
35291;BME280;21411;50.024;19.220;2023-03-30T01:13:02;98994.95;;;2.68;83.71
35291;BME280;21411;50.024;19.220;2023-03-30T01:15:32;98987.89;;;2.63;83.48
35291;BME280;21411;50.024;19.220;2023-03-30T01:26:38;98981.40;;;2.49;84.82
35291;BME280;21411;50.024;19.220;2023-03-30T01:43:12;98954.89;;;2.29;86.46
35291;BME280;21411;50.024;19.220;2023-03-30T01:45:48;98949.33;;;2.28;86.21
35291;BME280;21411;50.024;19.220;2023-03-30T01:48:25;98948.53;;;2.30;86.37
35291;BME280;21411;50.024;19.220;2023-03-30T01:50:59;98947.60;;;2.32;86.50
35291;BME280;21411;50.024;19.220;2023-03-30T01:53:37;98946.52;;;2.33;86.61
35291;BME280;21411;50.024;19.220;2023-03-30T01:56:13;98943.77;;;2.31;86.66
35291;BME280;21411;50.024;19.220;2023-03-30T01:58:56;98942.85;;;2.28;86.75
35291;BME280;21411;50.024;19.220;2023-03-30T02:01:27;98945.58;;;2.19;87.15
35291;BME280;21411;50.024;19.220;2023-03-30T02:03:57;98949.41;;;2.09;87.37
35291;BME280;21411;50.024;19.220;2023-03-30T02:06:31;98949.87;;;2.01;88.01
35291;BME280;21411;50.024;19.220;2023-03-30T02:09:12;98947.95;;;1.95;88.52
35291;BME280;21411;50.024;19.220;2023-03-30T02:11:43;98947.81;;;1.94;89.29
35291;BME280;21411;50.024;19.220;2023-03-30T02:14:13;98948.77;;;1.92;89.54
35291;BME280;21411;50.024;19.220;2023-03-30T02:16:44;98947.22;;;1.91;89.65
35291;BME280;21411;50.024;19.220;2023-03-30T02:19:11;98943.38;;;1.91;89.78
35291;BME280;21411;50.024;19.220;2023-03-30T02:21:37;98950.66;;;1.93;90.34
35291;BME280;21411;50.024;19.220;2023-03-30T02:24:06;98949.59;;;1.93;90.20
35291;BME280;21411;50.024;19.220;2023-03-30T02:26:33;98943.66;;;1.93;90.19
35291;BME280;21411;50.024;19.220;2023-03-30T02:29:01;98939.27;;;1.93;90.39
35291;BME280;21411;50.024;19.220;2023-03-30T02:31:27;98938.79;;;1.91;90.38
35291;BME280;21411;50.024;19.220;2023-03-30T02:39:30;98937.92;;;1.85;90.79
35291;BME280;21411;50.024;19.220;2023-03-30T02:42:20;98939.98;;;1.82;90.92
35291;BME280;21411;50.024;19.220;2023-03-30T02:50:23;98939.27;;;1.82;91.77
35291;BME280;21411;50.024;19.220;2023-03-30T02:52:57;98935.46;;;1.86;91.72
35291;BME280;21411;50.024;19.220;2023-03-30T02:55:42;98930.70;;;1.92;92.29
35291;BME280;21411;50.024;19.220;2023-03-30T02:58:33;98928.66;;;1.96;93.09
35291;BME280;21411;50.024;19.220;2023-03-30T03:03:56;98930.21;;;2.02;93.55
35291;BME280;21411;50.024;19.220;2023-03-30T03:06:27;98922.92;;;2.05;93.63
35291;BME280;21411;50.024;19.220;2023-03-30T03:08:55;98919.11;;;2.09;93.83
35291;BME280;21411;50.024;19.220;2023-03-30T03:11:22;98912.38;;;2.11;94.16
35291;BME280;21411;50.024;19.220;2023-03-30T03:13:49;98910.56;;;2.13;94.06
35291;BME280;21411;50.024;19.220;2023-03-30T03:16:16;98904.31;;;2.16;93.88
35291;BME280;21411;50.024;19.220;2023-03-30T03:18:43;98904.23;;;2.18;94.70
35291;BME280;21411;50.024;19.220;2023-03-30T03:21:11;98903.17;;;2.19;94.65
35291;BME280;21411;50.024;19.220;2023-03-30T03:23:39;98905.04;;;2.20;94.56
35291;BME280;21411;50.024;19.220;2023-03-30T03:26:06;98900.23;;;2.23;94.69
35291;BME280;21411;50.024;19.220;2023-03-30T03:28:34;98899.46;;;2.25;94.82
35291;BME280;21411;50.024;19.220;2023-03-30T03:31:01;98901.84;;;2.27;94.73
35291;BME280;21411;50.024;19.220;2023-03-30T03:33:29;98897.80;;;2.27;94.90
35291;BME280;21411;50.024;19.220;2023-03-30T03:35:57;98901.17;;;2.26;94.65
35291;BME280;21411;50.024;19.220;2023-03-30T03:38:26;98896.81;;;2.26;95.26
35291;BME280;21411;50.024;19.220;2023-03-30T03:40:56;98893.05;;;2.28;95.46
35291;BME280;21411;50.024;19.220;2023-03-30T03:43:23;98886.64;;;2.30;95.65
35291;BME280;21411;50.024;19.220;2023-03-30T03:45:51;98879.58;;;2.32;96.04
35291;BME280;21411;50.024;19.220;2023-03-30T03:48:20;98875.30;;;2.34;96.31
35291;BME280;21411;50.024;19.220;2023-03-30T03:50:50;98871.92;;;2.36;96.59
35291;BME280;21411;50.024;19.220;2023-03-30T03:53:17;98865.59;;;2.36;97.16
35291;BME280;21411;50.024;19.220;2023-03-30T03:55:44;98859.51;;;2.34;96.75
35291;BME280;21411;50.024;19.220;2023-03-30T03:58:13;98853.05;;;2.34;96.97
35291;BME280;21411;50.024;19.220;2023-03-30T04:00:40;98852.55;;;2.33;97.48
35291;BME280;21411;50.024;19.220;2023-03-30T04:03:06;98847.17;;;2.31;97.92
35291;BME280;21411;50.024;19.220;2023-03-30T04:05:34;98852.27;;;2.31;98.32
35291;BME280;21411;50.024;19.220;2023-03-30T04:08:02;98855.36;;;2.33;98.31
35291;BME280;21411;50.024;19.220;2023-03-30T04:10:34;98854.23;;;2.35;98.42
35291;BME280;21411;50.024;19.220;2023-03-30T04:13:01;98853.52;;;2.36;98.36
35291;BME280;21411;50.024;19.220;2023-03-30T04:15:27;98847.15;;;2.37;98.26
35291;BME280;21411;50.024;19.220;2023-03-30T04:17:54;98844.42;;;2.39;98.16
35291;BME280;21411;50.024;19.220;2023-03-30T04:20:28;98841.49;;;2.43;98.33
35291;BME280;21411;50.024;19.220;2023-03-30T04:22:55;98835.56;;;2.47;98.41
35291;BME280;21411;50.024;19.220;2023-03-30T04:25:24;98831.55;;;2.51;98.99
35291;BME280;21411;50.024;19.220;2023-03-30T04:27:55;98832.43;;;2.56;99.79
35291;BME280;21411;50.024;19.220;2023-03-30T04:30:22;98832.80;;;2.60;100.00
35291;BME280;21411;50.024;19.220;2023-03-30T04:32:49;98832.50;;;2.63;100.00
35291;BME280;21411;50.024;19.220;2023-03-30T04:35:29;98830.96;;;2.67;100.00
35291;BME280;21411;50.024;19.220;2023-03-30T04:37:56;98830.44;;;2.71;100.00
35291;BME280;21411;50.024;19.220;2023-03-30T04:40:25;98829.58;;;2.76;100.00
35291;BME280;21411;50.024;19.220;2023-03-30T04:42:52;98825.20;;;2.80;100.00
35291;BME280;21411;50.024;19.220;2023-03-30T04:45:19;98822.73;;;2.85;100.00
35291;BME280;21411;50.024;19.220;2023-03-30T04:47:46;98823.80;;;2.89;100.00
35291;BME280;21411;50.024;19.220;2023-03-30T04:50:13;98821.84;;;2.95;100.00
35291;BME280;21411;50.024;19.220;2023-03-30T04:52:40;98817.12;;;2.98;100.00
35291;BME280;21411;50.024;19.220;2023-03-30T04:55:07;98813.63;;;3.03;100.00
35291;BME280;21411;50.024;19.220;2023-03-30T04:57:35;98814.54;;;3.06;100.00
35291;BME280;21411;50.024;19.220;2023-03-30T05:00:04;98817.36;;;3.10;100.00
35291;BME280;21411;50.024;19.220;2023-03-30T05:02:32;98812.80;;;3.15;100.00
35291;BME280;21411;50.024;19.220;2023-03-30T05:04:59;98805.08;;;3.19;100.00
35291;BME280;21411;50.024;19.220;2023-03-30T05:07:26;98799.45;;;3.24;100.00
35291;BME280;21411;50.024;19.220;2023-03-30T05:09:53;98798.35;;;3.29;100.00
35291;BME280;21411;50.024;19.220;2023-03-30T05:12:19;98797.45;;;3.34;100.00
35291;BME280;21411;50.024;19.220;2023-03-30T05:14:46;98797.95;;;3.39;100.00
35291;BME280;21411;50.024;19.220;2023-03-30T05:17:13;98797.11;;;3.43;100.00
35291;BME280;21411;50.024;19.220;2023-03-30T05:19:40;98795.83;;;3.48;100.00
35291;BME280;21411;50.024;19.220;2023-03-30T05:22:06;98790.51;;;3.53;100.00
35291;BME280;21411;50.024;19.220;2023-03-30T05:24:33;98792.30;;;3.61;100.00
35291;BME280;21411;50.024;19.220;2023-03-30T05:26:59;98790.42;;;3.68;100.00
35291;BME280;21411;50.024;19.220;2023-03-30T05:29:27;98790.40;;;3.77;100.00
35291;BME280;21411;50.024;19.220;2023-03-30T05:31:54;98780.88;;;3.86;100.00
35291;BME280;21411;50.024;19.220;2023-03-30T05:34:21;98777.64;;;3.96;100.00
35291;BME280;21411;50.024;19.220;2023-03-30T05:36:47;98774.23;;;4.05;100.00
35291;BME280;21411;50.024;19.220;2023-03-30T05:39:14;98774.48;;;4.16;100.00
35291;BME280;21411;50.024;19.220;2023-03-30T05:41:40;98770.30;;;4.27;100.00
35291;BME280;21411;50.024;19.220;2023-03-30T05:44:07;98764.41;;;4.36;100.00
35291;BME280;21411;50.024;19.220;2023-03-30T05:46:34;98761.39;;;4.45;100.00
35291;BME280;21411;50.024;19.220;2023-03-30T05:49:00;98761.60;;;4.52;100.00
35291;BME280;21411;50.024;19.220;2023-03-30T05:51:27;98763.23;;;4.58;100.00
35291;BME280;21411;50.024;19.220;2023-03-30T05:53:53;98757.16;;;4.67;100.00
35291;BME280;21411;50.024;19.220;2023-03-30T05:56:20;98757.04;;;4.78;100.00
35291;BME280;21411;50.024;19.220;2023-03-30T05:58:48;98757.02;;;4.93;100.00
35291;BME280;21411;50.024;19.220;2023-03-30T06:01:15;98754.55;;;5.11;100.00
35291;BME280;21411;50.024;19.220;2023-03-30T06:03:42;98749.86;;;5.32;100.00
35291;BME280;21411;50.024;19.220;2023-03-30T06:06:08;98742.33;;;5.56;100.00
35291;BME280;21411;50.024;19.220;2023-03-30T06:08:35;98731.92;;;5.80;99.42
35291;BME280;21411;50.024;19.220;2023-03-30T06:11:03;98726.08;;;6.05;98.43
35291;BME280;21411;50.024;19.220;2023-03-30T06:13:29;98719.73;;;6.24;97.38
35291;BME280;21411;50.024;19.220;2023-03-30T06:15:57;98714.80;;;6.34;96.63
35291;BME280;21411;50.024;19.220;2023-03-30T06:18:24;98718.52;;;6.40;96.45
35291;BME280;21411;50.024;19.220;2023-03-30T06:20:50;98715.05;;;6.46;95.73
35291;BME280;21411;50.024;19.220;2023-03-30T06:23:17;98713.96;;;6.50;95.04
35291;BME280;21411;50.024;19.220;2023-03-30T06:25:45;98712.30;;;6.54;94.55
35291;BME280;21411;50.024;19.220;2023-03-30T06:28:12;98713.05;;;6.59;93.95
35291;BME280;21411;50.024;19.220;2023-03-30T06:30:39;98705.41;;;6.64;93.38
35291;BME280;21411;50.024;19.220;2023-03-30T06:33:06;98702.56;;;6.70;93.14
35291;BME280;21411;50.024;19.220;2023-03-30T06:35:33;98707.64;;;6.78;92.27
35291;BME280;21411;50.024;19.220;2023-03-30T06:37:59;98710.58;;;6.85;91.82
35291;BME280;21411;50.024;19.220;2023-03-30T06:40:26;98712.38;;;6.91;91.76
35291;BME280;21411;50.024;19.220;2023-03-30T06:42:53;98717.66;;;6.97;91.22
35291;BME280;21411;50.024;19.220;2023-03-30T06:45:19;98720.63;;;7.04;90.62
35291;BME280;21411;50.024;19.220;2023-03-30T06:47:46;98724.59;;;7.09;89.52
35291;BME280;21411;50.024;19.220;2023-03-30T06:50:13;98722.77;;;7.13;89.12
35291;BME280;21411;50.024;19.220;2023-03-30T06:52:39;98723.83;;;7.19;89.15
35291;BME280;21411;50.024;19.220;2023-03-30T06:55:06;98719.43;;;7.25;89.06
35291;BME280;21411;50.024;19.220;2023-03-30T06:57:33;98714.38;;;7.33;88.74
35291;BME280;21411;50.024;19.220;2023-03-30T06:59:59;98712.35;;;7.46;88.32
35291;BME280;21411;50.024;19.220;2023-03-30T07:02:26;98709.14;;;7.65;88.24
35291;BME280;21411;50.024;19.220;2023-03-30T07:04:53;98703.49;;;7.88;87.76
35291;BME280;21411;50.024;19.220;2023-03-30T07:07:20;98698.73;;;8.11;87.22
35291;BME280;21411;50.024;19.220;2023-03-30T07:09:47;98694.90;;;8.33;86.53
35291;BME280;21411;50.024;19.220;2023-03-30T07:12:14;98695.14;;;8.52;85.74
35291;BME280;21411;50.024;19.220;2023-03-30T07:14:42;98699.31;;;8.70;84.92
35291;BME280;21411;50.024;19.220;2023-03-30T07:17:09;98699.84;;;8.87;84.20
35291;BME280;21411;50.024;19.220;2023-03-30T07:19:35;98695.48;;;8.99;83.48
35291;BME280;21411;50.024;19.220;2023-03-30T07:22:02;98695.36;;;9.17;82.96
35291;BME280;21411;50.024;19.220;2023-03-30T07:24:29;98694.45;;;9.36;82.15
35291;BME280;21411;50.024;19.220;2023-03-30T07:26:56;98688.64;;;9.54;81.00
35291;BME280;21411;50.024;19.220;2023-03-30T07:29:23;98677.45;;;9.62;80.55
35291;BME280;21411;50.024;19.220;2023-03-30T07:31:50;98675.58;;;9.64;79.81
35291;BME280;21411;50.024;19.220;2023-03-30T07:34:16;98668.77;;;9.70;79.50
35291;BME280;21411;50.024;19.220;2023-03-30T07:36:43;98663.92;;;9.84;78.97
35291;BME280;21411;50.024;19.220;2023-03-30T07:39:10;98667.06;;;10.05;78.57
35291;BME280;21411;50.024;19.220;2023-03-30T07:41:36;98667.38;;;10.28;77.93
35291;BME280;21411;50.024;19.220;2023-03-30T07:44:03;98670.51;;;10.42;77.14
35291;BME280;21411;50.024;19.220;2023-03-30T07:46:29;98672.34;;;10.54;77.11
35291;BME280;21411;50.024;19.220;2023-03-30T07:48:56;98677.25;;;10.77;76.93
35291;BME280;21411;50.024;19.220;2023-03-30T07:51:25;98676.10;;;11.07;76.00
35291;BME280;21411;50.024;19.220;2023-03-30T07:53:51;98673.70;;;11.34;74.86
35291;BME280;21411;50.024;19.220;2023-03-30T07:56:18;98663.89;;;11.63;74.87
35291;BME280;21411;50.024;19.220;2023-03-30T07:58:44;98664.27;;;11.95;74.16
35291;BME280;21411;50.024;19.220;2023-03-30T08:01:11;98659.27;;;12.16;72.68
35291;BME280;21411;50.024;19.220;2023-03-30T08:03:38;98647.08;;;12.19;71.61
35291;BME280;21411;50.024;19.220;2023-03-30T08:06:05;98646.52;;;12.24;71.50
35291;BME280;21411;50.024;19.220;2023-03-30T08:08:33;98645.44;;;12.33;71.12
35291;BME280;21411;50.024;19.220;2023-03-30T08:11:00;98641.56;;;12.41;70.44
35291;BME280;21411;50.024;19.220;2023-03-30T08:13:27;98642.92;;;12.51;69.84
35291;BME280;21411;50.024;19.220;2023-03-30T08:15:53;98641.88;;;12.60;69.33
35291;BME280;21411;50.024;19.220;2023-03-30T08:18:20;98641.30;;;12.67;68.98
35291;BME280;21411;50.024;19.220;2023-03-30T08:20:52;98645.09;;;12.77;69.01
35291;BME280;21411;50.024;19.220;2023-03-30T08:23:19;98640.23;;;12.93;68.25
35291;BME280;21411;50.024;19.220;2023-03-30T08:25:46;98641.17;;;13.05;66.93
35291;BME280;21411;50.024;19.220;2023-03-30T08:28:18;98647.96;;;13.23;66.18
35291;BME280;21411;50.024;19.220;2023-03-30T08:30:45;98650.63;;;13.32;65.24
35291;BME280;21411;50.024;19.220;2023-03-30T08:33:13;98649.66;;;13.34;63.84
35291;BME280;21411;50.024;19.220;2023-03-30T08:35:45;98647.80;;;13.46;63.10
35291;BME280;21411;50.024;19.220;2023-03-30T08:38:14;98641.22;;;13.63;62.65
35291;BME280;21411;50.024;19.220;2023-03-30T08:40:44;98638.14;;;13.72;60.82
35291;BME280;21411;50.024;19.220;2023-03-30T08:46:03;98636.21;;;13.98;61.60
35291;BME280;21411;50.024;19.220;2023-03-30T08:48:32;98635.64;;;14.02;60.08
35291;BME280;21411;50.024;19.220;2023-03-30T08:51:27;98634.23;;;14.02;60.60
35291;BME280;21411;50.024;19.220;2023-03-30T08:54:05;98625.82;;;14.13;60.19
35291;BME280;21411;50.024;19.220;2023-03-30T08:56:34;98625.54;;;14.28;59.32
35291;BME280;21411;50.024;19.220;2023-03-30T09:01:59;98617.80;;;14.41;57.96
35291;BME280;21411;50.024;19.220;2023-03-30T09:07:31;98605.47;;;14.41;57.54
35291;BME280;21411;50.024;19.220;2023-03-30T09:10:03;98602.89;;;14.48;57.75
35291;BME280;21411;50.024;19.220;2023-03-30T09:12:40;98602.98;;;14.56;57.17
35291;BME280;21411;50.024;19.220;2023-03-30T09:15:17;98595.02;;;14.58;57.89
35291;BME280;21411;50.024;19.220;2023-03-30T09:17:49;98580.17;;;14.62;58.06
35291;BME280;21411;50.024;19.220;2023-03-30T09:20:28;98574.83;;;14.68;58.20
35291;BME280;21411;50.024;19.220;2023-03-30T09:22:58;98578.86;;;14.75;58.13
35291;BME280;21411;50.024;19.220;2023-03-30T09:28:18;98572.05;;;15.18;57.71
35291;BME280;21411;50.024;19.220;2023-03-30T09:36:45;98571.27;;;15.32;56.17
35291;BME280;21411;50.024;19.220;2023-03-30T09:39:19;98572.27;;;15.33;55.70
35291;BME280;21411;50.024;19.220;2023-03-30T09:44:51;98561.17;;;15.69;53.99
35291;BME280;21411;50.024;19.220;2023-03-30T09:47:26;98549.79;;;15.72;54.13
35291;BME280;21411;50.024;19.220;2023-03-30T09:49:55;98538.64;;;15.73;54.25
35291;BME280;21411;50.024;19.220;2023-03-30T09:52:24;98527.33;;;15.73;54.70
35291;BME280;21411;50.024;19.220;2023-03-30T09:54:52;98523.84;;;15.78;54.25
35291;BME280;21411;50.024;19.220;2023-03-30T09:57:26;98519.45;;;15.74;54.35
35291;BME280;21411;50.024;19.220;2023-03-30T09:59:54;98519.52;;;15.74;54.52
35291;BME280;21411;50.024;19.220;2023-03-30T10:02:23;98520.69;;;15.79;55.12
35291;BME280;21411;50.024;19.220;2023-03-30T10:07:32;98509.91;;;16.27;54.31
35291;BME280;21411;50.024;19.220;2023-03-30T10:10:13;98507.64;;;16.48;54.22
35291;BME280;21411;50.024;19.220;2023-03-30T10:12:41;98505.79;;;16.71;53.85
35291;BME280;21411;50.024;19.220;2023-03-30T10:15:14;98510.01;;;16.79;53.10
35291;BME280;21411;50.024;19.220;2023-03-30T10:17:44;98519.64;;;16.74;51.95
35291;BME280;21411;50.024;19.220;2023-03-30T10:20:29;98521.23;;;16.61;51.76
35291;BME280;21411;50.024;19.220;2023-03-30T10:23:11;98513.60;;;16.42;52.19
35291;BME280;21411;50.024;19.220;2023-03-30T10:25:40;98511.14;;;16.27;51.86
35291;BME280;21411;50.024;19.220;2023-03-30T10:28:16;98503.17;;;16.08;52.29
35291;BME280;21411;50.024;19.220;2023-03-30T10:30:50;98496.02;;;16.04;53.16
35291;BME280;21411;50.024;19.220;2023-03-30T10:33:22;98485.98;;;16.20;53.24
35291;BME280;21411;50.024;19.220;2023-03-30T10:35:51;98480.30;;;16.40;53.23
35291;BME280;21411;50.024;19.220;2023-03-30T10:38:19;98472.84;;;16.45;53.10
35291;BME280;21411;50.024;19.220;2023-03-30T10:40:48;98470.60;;;16.29;52.28
35291;BME280;21411;50.024;19.220;2023-03-30T10:43:19;98478.52;;;15.94;52.00
35291;BME280;21411;50.024;19.220;2023-03-30T10:45:49;98481.86;;;15.59;52.38
35291;BME280;21411;50.024;19.220;2023-03-30T10:48:31;98473.05;;;15.37;52.70
35291;BME280;21411;50.024;19.220;2023-03-30T10:56:44;98458.53;;;15.35;53.19
35291;BME280;21411;50.024;19.220;2023-03-30T10:59:24;98451.08;;;15.48;53.43
35291;BME280;21411;50.024;19.220;2023-03-30T11:04:49;98456.73;;;15.60;53.15
35291;BME280;21411;50.024;19.220;2023-03-30T11:07:27;98453.34;;;15.54;53.50
35291;BME280;21411;50.024;19.220;2023-03-30T11:09:57;98452.23;;;15.42;53.84
35291;BME280;21411;50.024;19.220;2023-03-30T11:12:34;98447.19;;;15.32;54.63
35291;BME280;21411;50.024;19.220;2023-03-30T11:15:08;98436.98;;;15.38;54.69
35291;BME280;21411;50.024;19.220;2023-03-30T11:17:54;98430.40;;;15.51;54.86
35291;BME280;21411;50.024;19.220;2023-03-30T11:20:49;98423.86;;;15.74;55.23
35291;BME280;21411;50.024;19.220;2023-03-30T11:23:25;98412.09;;;15.89;55.00
35291;BME280;21411;50.024;19.220;2023-03-30T11:26:09;98414.94;;;15.94;54.58
35291;BME280;21411;50.024;19.220;2023-03-30T11:31:34;98416.21;;;16.03;54.39
35291;BME280;21411;50.024;19.220;2023-03-30T11:34:13;98422.61;;;16.18;53.30
35291;BME280;21411;50.024;19.220;2023-03-30T11:36:54;98420.27;;;16.23;53.71
35291;BME280;21411;50.024;19.220;2023-03-30T11:39:29;98410.44;;;16.34;54.14
35291;BME280;21411;50.024;19.220;2023-03-30T11:42:04;98410.16;;;16.39;53.53
35291;BME280;21411;50.024;19.220;2023-03-30T11:44:33;98408.18;;;16.40;53.40
35291;BME280;21411;50.024;19.220;2023-03-30T11:52:17;98393.37;;;16.61;52.86
35291;BME280;21411;50.024;19.220;2023-03-30T12:00:47;98362.28;;;16.32;54.02
35291;BME280;21411;50.024;19.220;2023-03-30T12:06:26;98367.83;;;16.28;54.22
35291;BME280;21411;50.024;19.220;2023-03-30T12:12:07;98365.58;;;16.47;53.92
35291;BME280;21411;50.024;19.220;2023-03-30T12:17:17;98347.42;;;16.60;54.08
35291;BME280;21411;50.024;19.220;2023-03-30T12:19:58;98345.35;;;16.71;54.13
35291;BME280;21411;50.024;19.220;2023-03-30T12:22:34;98350.15;;;16.86;54.18
35291;BME280;21411;50.024;19.220;2023-03-30T12:28:12;98348.85;;;17.17;53.70
35291;BME280;21411;50.024;19.220;2023-03-30T12:30:57;98347.33;;;17.22;52.87
35291;BME280;21411;50.024;19.220;2023-03-30T12:35:59;98351.05;;;16.95;52.64
35291;BME280;21411;50.024;19.220;2023-03-30T12:38:34;98347.84;;;16.71;53.13
35291;BME280;21411;50.024;19.220;2023-03-30T12:41:12;98345.23;;;16.48;53.29
35291;BME280;21411;50.024;19.220;2023-03-30T12:46:32;98354.95;;;16.12;54.03
35291;BME280;21411;50.024;19.220;2023-03-30T12:49:15;98353.59;;;16.11;54.34
35291;BME280;21411;50.024;19.220;2023-03-30T12:51:56;98347.06;;;16.14;54.59
35291;BME280;21411;50.024;19.220;2023-03-30T13:05:30;98337.23;;;16.33;54.97
35291;BME280;21411;50.024;19.220;2023-03-30T13:08:04;98340.46;;;16.35;55.65
35291;BME280;21411;50.024;19.220;2023-03-30T13:10:37;98334.46;;;16.37;55.97
35291;BME280;21411;50.024;19.220;2023-03-30T13:13:04;98335.55;;;16.37;56.00
35291;BME280;21411;50.024;19.220;2023-03-30T13:15:52;98335.70;;;16.31;56.20
35291;BME280;21411;50.024;19.220;2023-03-30T13:21:02;98335.80;;;16.17;56.54
35291;BME280;21411;50.024;19.220;2023-03-30T13:23:32;98336.83;;;16.07;56.73
35291;BME280;21411;50.024;19.220;2023-03-30T13:26:21;98337.35;;;15.99;57.05
35291;BME280;21411;50.024;19.220;2023-03-30T13:29:02;98339.77;;;15.88;57.17
35291;BME280;21411;50.024;19.220;2023-03-30T13:40:17;98344.91;;;15.52;58.66
35291;BME280;21411;50.024;19.220;2023-03-30T13:45:55;98343.20;;;15.40;59.30
35291;BME280;21411;50.024;19.220;2023-03-30T13:48:35;98347.57;;;15.32;59.69
35291;BME280;21411;50.024;19.220;2023-03-30T13:51:12;98346.04;;;15.23;60.05
35291;BME280;21411;50.024;19.220;2023-03-30T13:53:45;98351.06;;;15.18;60.39
35291;BME280;21411;50.024;19.220;2023-03-30T13:56:15;98355.98;;;15.11;60.70
35291;BME280;21411;50.024;19.220;2023-03-30T13:59:08;98353.67;;;15.04;60.93
35291;BME280;21411;50.024;19.220;2023-03-30T14:01:32;98353.41;;;14.95;61.14
35291;BME280;21411;50.024;19.220;2023-03-30T14:04:00;98355.47;;;14.87;61.37
35291;BME280;21411;50.024;19.220;2023-03-30T14:06:30;98359.14;;;14.82;61.38
35291;BME280;21411;50.024;19.220;2023-03-30T14:11:34;98363.90;;;14.69;61.59
35291;BME280;21411;50.024;19.220;2023-03-30T14:14:03;98367.33;;;14.61;61.87
35291;BME280;21411;50.024;19.220;2023-03-30T14:16:32;98365.98;;;14.53;62.04
35291;BME280;21411;50.024;19.220;2023-03-30T14:21:47;98370.45;;;14.37;62.63
35291;BME280;21411;50.024;19.220;2023-03-30T14:24:25;98369.95;;;14.31;62.94
35291;BME280;21411;50.024;19.220;2023-03-30T14:27:10;98367.59;;;14.24;63.49
35291;BME280;21411;50.024;19.220;2023-03-30T14:29:45;98370.32;;;14.15;63.81
35291;BME280;21411;50.024;19.220;2023-03-30T14:32:13;98373.50;;;14.06;64.51
35291;BME280;21411;50.024;19.220;2023-03-30T14:34:49;98380.11;;;13.96;65.76
35291;BME280;21411;50.024;19.220;2023-03-30T14:37:16;98387.02;;;13.83;67.26
35291;BME280;21411;50.024;19.220;2023-03-30T14:39:53;98393.16;;;13.66;69.42
35291;BME280;21411;50.024;19.220;2023-03-30T14:42:25;98391.43;;;13.45;71.87
35291;BME280;21411;50.024;19.220;2023-03-30T14:44:54;98395.96;;;13.26;72.94
35291;BME280;21411;50.024;19.220;2023-03-30T14:47:24;98402.19;;;13.10;74.63
35291;BME280;21411;50.024;19.220;2023-03-30T14:49:53;98400.78;;;12.93;76.70
35291;BME280;21411;50.024;19.220;2023-03-30T14:52:24;98400.64;;;12.76;79.00
35291;BME280;21411;50.024;19.220;2023-03-30T14:54:53;98403.14;;;12.59;80.12
35291;BME280;21411;50.024;19.220;2023-03-30T14:57:22;98401.27;;;12.45;85.49
35291;BME280;21411;50.024;19.220;2023-03-30T14:59:52;98399.36;;;12.32;85.50
35291;BME280;21411;50.024;19.220;2023-03-30T15:02:22;98393.84;;;12.19;88.13
35291;BME280;21411;50.024;19.220;2023-03-30T15:04:51;98387.23;;;12.06;91.31
35291;BME280;21411;50.024;19.220;2023-03-30T15:07:19;98381.40;;;11.95;92.61
35291;BME280;21411;50.024;19.220;2023-03-30T15:09:53;98382.89;;;11.88;94.20
35291;BME280;21411;50.024;19.220;2023-03-30T15:12:28;98377.04;;;11.78;97.89
35291;BME280;21411;50.024;19.220;2023-03-30T15:15:00;98376.35;;;11.69;98.31
35291;BME280;21411;50.024;19.220;2023-03-30T15:17:29;98368.77;;;11.61;99.74
35291;BME280;21411;50.024;19.220;2023-03-30T15:19:57;98364.48;;;11.56;100.00
35291;BME280;21411;50.024;19.220;2023-03-30T15:22:34;98360.89;;;11.54;100.00
35291;BME280;21411;50.024;19.220;2023-03-30T15:25:07;98361.50;;;11.51;100.00